Time;durP1;ratioP1;P1;durP2;ratioP2;P2;SDS_P1;SDS_P2;PMS_P1;PMS_P2;Temp;Humidity;BMP_temperature;BMP_pressure;BME280_temperature;BME280_humidity;BME280_pressure;Samples;Min_cycle;Max_cycle;Signal;HPM_P1;HPM_P2
2024/03/02 00:01:11;;;;;;;12.98;2.63;;;;;;;;;;10364543;28;20022;-66
2024/03/02 00:06:11;;;;;;;6.15;3.42;;;;;;;;;;10364410;28;20637;-65
2024/03/02 00:11:14;;;;;;;7.97;2.40;;;;;;;;;;10366095;28;20084;-65
2024/03/02 00:16:16;;;;;;;4.22;2.15;;;;;;;;;;10365531;28;20593;-65
2024/03/02 00:21:20;;;;;;;5.63;2.15;;;;;;;;;;10363748;28;20146;-65
2024/03/02 00:26:20;;;;;;;7.18;2.25;;;;;;;;;;10366175;28;20038;-64
2024/03/02 00:31:21;;;;;;;4.47;2.40;;;;;;;;;;10364526;28;20022;-65
2024/03/02 00:36:26;;;;;;;6.50;2.45;;;;;;;;;;10368285;28;20096;-65
2024/03/02 00:41:31;;;;;;;5.88;2.35;;;;;;;;;;10374496;28;20088;-65
2024/03/02 00:46:43;;;;;;;4.75;2.45;;;;;;;;;;10373152;28;20543;-65
2024/03/02 00:51:50;;;;;;;7.50;2.45;;;;;;;;;;10373258;28;20037;-66
2024/03/02 00:56:54;;;;;;;6.03;2.40;;;;;;;;;;10373613;28;20030;-63
2024/03/02 01:01:55;;;;;;;6.40;1.98;;;;;;;;;;10372732;28;20030;-64
2024/03/02 01:06:58;;;;;;;10.60;3.20;;;;;;;;;;10372096;28;20045;-64
2024/03/02 01:11:59;;;;;;;5.30;2.38;;;;;;;;;;10372695;28;20297;-65
2024/03/02 01:16:59;;;;;;;3.97;2.05;;;;;;;;;;10372665;28;20633;-66
2024/03/02 01:22:00;;;;;;;9.80;2.45;;;;;;;;;;10371685;28;20029;-65
2024/03/02 01:27:01;;;;;;;10.48;2.35;;;;;;;;;;10371683;28;20033;-65
2024/03/02 01:32:01;;;;;;;13.68;2.05;;;;;;;;;;10371263;28;20500;-65
2024/03/02 01:37:02;;;;;;;3.38;2.15;;;;;;;;;;10370769;28;20034;-65
2024/03/02 01:42:03;;;;;;;4.03;1.90;;;;;;;;;;10370868;28;20084;-65
2024/03/02 01:47:03;;;;;;;3.80;2.35;;;;;;;;;;10370835;28;20034;-66
2024/03/02 01:52:04;;;;;;;8.05;2.20;;;;;;;;;;10371281;28;20385;-65
2024/03/02 01:57:05;;;;;;;7.00;2.35;;;;;;;;;;10370624;28;20022;-66
2024/03/02 02:02:05;;;;;;;12.05;2.13;;;;;;;;;;10368885;28;20026;-64
2024/03/02 02:07:06;;;;;;;4.07;2.28;;;;;;;;;;10369798;28;20050;-64
2024/03/02 02:12:07;;;;;;;6.30;2.13;;;;;;;;;;10370175;28;20030;-64
2024/03/02 02:17:09;;;;;;;6.13;2.03;;;;;;;;;;10370504;28;20065;-64
2024/03/02 02:22:10;;;;;;;2.95;1.80;;;;;;;;;;10369674;28;20029;-64
2024/03/02 02:27:14;;;;;;;4.00;1.80;;;;;;;;;;10368619;28;20429;-66
2024/03/02 02:32:15;;;;;;;3.95;1.85;;;;;;;;;;10367909;28;20092;-65
2024/03/02 02:37:15;;;;;;;4.47;1.90;;;;;;;;;;10368498;28;20022;-65
2024/03/02 02:42:16;;;;;;;7.75;2.45;;;;;;;;;;10368830;28;20033;-63
2024/03/02 02:47:16;;;;;;;2.53;2.00;;;;;;;;;;10368499;28;20520;-64
2024/03/02 02:52:18;;;;;;;4.38;1.80;;;;;;;;;;10367979;28;20444;-63
2024/03/02 02:57:19;;;;;;;4.07;1.88;;;;;;;;;;10367935;28;20030;-64
2024/03/02 03:02:19;;;;;;;3.50;1.90;;;;;;;;;;10367493;28;20413;-66
2024/03/02 03:07:20;;;;;;;3.13;1.60;;;;;;;;;;10367543;28;20394;-66
2024/03/02 03:12:20;;;;;;;1.50;1.30;;;;;;;;;;10368494;28;20185;-66
2024/03/02 03:17:24;;;;;;;2.15;1.58;;;;;;;;;;10366780;28;20030;-66
2024/03/02 03:22:24;;;;;;;5.72;1.88;;;;;;;;;;10367535;28;20026;-66
2024/03/02 03:27:25;;;;;;;3.08;1.45;;;;;;;;;;10367971;28;20021;-66
2024/03/02 03:32:25;;;;;;;9.77;2.00;;;;;;;;;;10367348;28;20025;-66
2024/03/02 03:37:32;;;;;;;5.18;2.00;;;;;;;;;;10366801;28;20390;-63
2024/03/02 03:42:32;;;;;;;4.50;1.90;;;;;;;;;;10366334;28;20038;-63
2024/03/02 03:47:33;;;;;;;7.63;1.80;;;;;;;;;;10366171;28;20037;-63
2024/03/02 03:52:34;;;;;;;5.88;2.10;;;;;;;;;;10366193;28;20084;-66
2024/03/02 03:57:34;;;;;;;2.22;1.50;;;;;;;;;;10366359;28;20034;-65
2024/03/02 04:02:35;;;;;;;6.03;2.08;;;;;;;;;;10366134;28;20030;-63
2024/03/02 04:07:42;;;;;;;2.58;1.67;;;;;;;;;;10366388;28;20037;-65
2024/03/02 04:12:43;;;;;;;4.82;1.60;;;;;;;;;;10372951;28;20029;-65
2024/03/02 04:17:44;;;;;;;3.30;1.70;;;;;;;;;;10374639;28;20409;-65
2024/03/02 04:22:44;;;;;;;4.13;2.15;;;;;;;;;;10373486;28;20486;-65
2024/03/02 04:27:45;;;;;;;3.13;1.55;;;;;;;;;;10373849;28;20543;-65
2024/03/02 04:32:48;;;;;;;2.15;1.75;;;;;;;;;;10374295;28;20025;-65
2024/03/02 04:37:49;;;;;;;5.78;1.58;;;;;;;;;;10373585;28;20026;-64
2024/03/02 04:42:50;;;;;;;1.77;1.42;;;;;;;;;;10373785;28;20033;-66
2024/03/02 04:47:50;;;;;;;2.72;1.42;;;;;;;;;;10372837;28;20034;-66
2024/03/02 04:52:51;;;;;;;1.98;1.30;;;;;;;;;;10374127;28;20022;-65
2024/03/02 04:57:54;;;;;;;5.38;1.60;;;;;;;;;;10373392;28;20072;-66
2024/03/02 05:02:55;;;;;;;2.08;1.40;;;;;;;;;;10372363;28;20054;-65
2024/03/02 05:07:55;;;;;;;1.75;1.33;;;;;;;;;;10372972;28;20037;-65
2024/03/02 05:12:59;;;;;;;2.38;1.60;;;;;;;;;;10372634;28;20376;-65
2024/03/02 05:18:02;;;;;;;2.60;1.63;;;;;;;;;;10371007;28;20554;-66
2024/03/02 05:23:03;;;;;;;3.38;1.48;;;;;;;;;;10370799;28;20501;-66
2024/03/02 05:28:04;;;;;;;2.42;1.50;;;;;;;;;;10371851;28;20033;-65
2024/03/02 05:33:04;;;;;;;3.50;1.70;;;;;;;;;;10371785;28;20109;-64
2024/03/02 05:38:05;;;;;;;9.73;1.50;;;;;;;;;;10371909;28;20569;-64
2024/03/02 05:43:05;;;;;;;3.88;1.77;;;;;;;;;;10371172;28;20030;-64
2024/03/02 05:48:07;;;;;;;1.50;1.40;;;;;;;;;;10370948;28;20033;-65
2024/03/02 05:53:08;;;;;;;3.78;1.58;;;;;;;;;;10370994;28;20030;-65
2024/03/02 05:58:27;;;;;;;4.20;1.85;;;;;;;;;;10369472;28;20040;-65
2024/03/02 06:03:28;;;;;;;2.13;1.40;;;;;;;;;;10370072;28;20073;-66
2024/03/02 06:08:28;;;;;;;5.00;1.48;;;;;;;;;;10370695;28;20034;-65
2024/03/02 06:13:29;;;;;;;3.35;1.63;;;;;;;;;;10370438;28;20037;-65
2024/03/02 06:18:29;;;;;;;5.97;1.63;;;;;;;;;;10369934;28;20382;-66
2024/03/02 06:23:30;;;;;;;7.15;1.80;;;;;;;;;;10369679;28;20377;-65
2024/03/02 06:28:31;;;;;;;4.20;1.60;;;;;;;;;;10369900;28;20026;-66
2024/03/02 06:33:31;;;;;;;2.70;1.40;;;;;;;;;;10367672;28;20032;-66
2024/03/02 06:38:32;;;;;;;5.22;1.40;;;;;;;;;;10368479;28;20382;-65
2024/03/02 06:43:32;;;;;;;3.53;1.70;;;;;;;;;;10368190;28;20385;-65
2024/03/02 06:48:33;;;;;;;1.90;1.30;;;;;;;;;;10367850;28;20037;-66
2024/03/02 06:53:34;;;;;;;5.88;1.60;;;;;;;;;;10368468;28;20041;-66
2024/03/02 06:58:34;;;;;;;4.07;1.55;;;;;;;;;;10368257;28;20037;-65
2024/03/02 07:03:35;;;;;;;1.55;1.38;;;;;;;;;;10367933;28;20096;-65
2024/03/02 07:08:35;;;;;;;5.28;1.88;;;;;;;;;;10368335;28;20045;-64
2024/03/02 07:13:36;;;;;;;2.42;1.55;;;;;;;;;;10368137;28;20042;-64
2024/03/02 07:18:45;;;;;;;4.38;1.80;;;;;;;;;;10367906;28;20026;-64
2024/03/02 07:23:45;;;;;;;2.53;1.80;;;;;;;;;;10367236;28;20465;-65
2024/03/02 07:28:48;;;;;;;2.63;1.65;;;;;;;;;;10367437;28;20088;-63
2024/03/02 07:33:48;;;;;;;4.88;1.77;;;;;;;;;;10366458;28;20072;-64
2024/03/02 07:38:50;;;;;;;9.05;2.35;;;;;;;;;;10366721;28;20108;-65
2024/03/02 07:43:51;;;;;;;4.25;2.00;;;;;;;;;;10367011;28;20029;-66
2024/03/02 07:48:52;;;;;;;3.42;1.80;;;;;;;;;;10366842;28;20531;-65
2024/03/02 07:53:53;;;;;;;6.68;2.80;;;;;;;;;;10367206;28;20030;-65
2024/03/02 07:58:54;;;;;;;5.25;2.00;;;;;;;;;;10367266;28;20081;-64
2024/03/02 08:04:15;;;;;;;4.72;2.35;;;;;;;;;;10366912;28;20116;-64
2024/03/02 08:09:15;;;;;;;8.35;2.10;;;;;;;;;;10319597;28;20050;-66
2024/03/02 08:14:16;;;;;;;8.02;2.30;;;;;;;;;;10318570;28;20034;-66
2024/03/02 08:19:17;;;;;;;2.97;1.75;;;;;;;;;;10319512;28;20097;-66
2024/03/02 08:24:17;;;;;;;5.40;2.20;;;;;;;;;;10318387;28;20038;-65
2024/03/02 08:29:18;;;;;;;5.35;2.33;;;;;;;;;;10318810;28;20038;-64
2024/03/02 08:34:18;;;;;;;9.85;3.50;;;;;;;;;;10319079;28;20042;-65
2024/03/02 08:39:20;;;;;;;7.50;2.90;;;;;;;;;;10318782;28;20478;-65
2024/03/02 08:44:21;;;;;;;8.50;2.70;;;;;;;;;;10335336;28;20038;-64
2024/03/02 08:49:22;;;;;;;14.80;4.15;;;;;;;;;;10365683;28;20390;-62
2024/03/02 08:54:23;;;;;;;25.75;8.27;;;;;;;;;;10365380;28;20029;-63
2024/03/02 08:59:24;;;;;;;27.13;9.40;;;;;;;;;;10371503;28;20033;-63
2024/03/02 09:04:25;;;;;;;24.42;9.73;;;;;;;;;;10370258;28;20046;-63
2024/03/02 09:09:26;;;;;;;26.42;10.88;;;;;;;;;;10371656;28;20029;-63
2024/03/02 09:14:26;;;;;;;29.05;12.30;;;;;;;;;;10373087;28;20458;-63
2024/03/02 09:19:27;;;;;;;29.27;12.10;;;;;;;;;;10373053;28;20022;-63
2024/03/02 09:24:28;;;;;;;27.60;13.52;;;;;;;;;;10372041;28;20466;-63
2024/03/02 09:29:29;;;;;;;28.80;12.77;;;;;;;;;;10372973;28;20394;-61
2024/03/02 09:34:29;;;;;;;28.13;13.30;;;;;;;;;;10371551;28;20069;-62
2024/03/02 09:39:31;;;;;;;34.33;12.18;;;;;;;;;;10371032;28;20390;-61
2024/03/02 09:44:31;;;;;;;23.70;10.13;;;;;;;;;;10370815;28;20115;-69
2024/03/02 09:49:31;;;;;;;23.55;10.10;;;;;;;;;;10370747;28;20168;-70
2024/03/02 09:54:32;;;;;;;19.85;10.27;;;;;;;;;;10370892;28;20033;-68
2024/03/02 09:59:33;;;;;;;25.17;9.80;;;;;;;;;;10362381;28;20026;-66
2024/03/02 10:04:35;;;;;;;28.75;10.05;;;;;;;;;;10359100;28;20512;-65
2024/03/02 10:09:36;;;;;;;18.27;9.43;;;;;;;;;;10369983;28;20025;-66
2024/03/02 10:14:36;;;;;;;17.60;8.18;;;;;;;;;;10369672;28;20038;-65
2024/03/02 10:19:38;;;;;;;23.23;8.95;;;;;;;;;;10369914;28;20100;-66
2024/03/02 10:24:44;;;;;;;19.17;9.45;;;;;;;;;;10369573;28;20022;-66
2024/03/02 10:29:48;;;;;;;13.90;8.35;;;;;;;;;;10369388;28;20037;-66
2024/03/02 10:34:50;;;;;;;18.63;9.10;;;;;;;;;;10368716;28;20489;-66
2024/03/02 10:39:52;;;;;;;25.00;8.27;;;;;;;;;;10368717;28;20489;-62
2024/03/02 10:44:52;;;;;;;18.60;8.00;;;;;;;;;;10367543;28;20057;-65
2024/03/02 10:49:54;;;;;;;20.83;8.50;;;;;;;;;;10367404;28;20436;-66
2024/03/02 10:54:55;;;;;;;17.75;8.23;;;;;;;;;;10351385;28;20030;-66
2024/03/02 11:00:02;;;;;;;15.83;8.03;;;;;;;;;;10365070;28;20033;-66
2024/03/02 11:05:07;;;;;;;17.17;7.72;;;;;;;;;;10368203;28;20769;-66
2024/03/02 11:10:08;;;;;;;16.02;8.32;;;;;;;;;;10364638;28;20033;-66
2024/03/02 11:15:17;;;;;;;14.38;8.10;;;;;;;;;;10367064;28;20025;-67
2024/03/02 11:20:18;;;;;;;16.90;8.23;;;;;;;;;;10366396;28;20049;-65
2024/03/02 11:25:27;;;;;;;15.30;7.57;;;;;;;;;;10367027;28;20040;-66
2024/03/02 11:30:33;;;;;;;15.18;7.85;;;;;;;;;;10366816;28;20535;-67
2024/03/02 11:35:38;;;;;;;13.77;6.90;;;;;;;;;;10366542;28;20030;-67
2024/03/02 11:40:40;;;;;;;19.40;7.65;;;;;;;;;;10366341;28;20166;-66
2024/03/02 11:45:43;;;;;;;16.52;7.38;;;;;;;;;;10365394;28;20470;-65
2024/03/02 11:50:49;;;;;;;13.20;6.97;;;;;;;;;;10365392;28;20191;-66
2024/03/02 11:55:50;;;;;;;12.05;7.10;;;;;;;;;;10366206;28;20034;-67
2024/03/02 12:00:51;;;;;;;17.73;8.07;;;;;;;;;;10365683;28;20029;-67
2024/03/02 12:05:53;;;;;;;13.57;6.40;;;;;;;;;;10365362;28;20605;-63
2024/03/02 12:11:01;;;;;;;13.00;7.45;;;;;;;;;;10358474;28;20018;-62
2024/03/02 12:16:02;;;;;;;13.33;8.00;;;;;;;;;;10364638;28;20034;-66
2024/03/02 12:21:04;;;;;;;19.08;8.95;;;;;;;;;;10366165;28;20481;-65
2024/03/02 12:26:04;;;;;;;19.27;9.13;;;;;;;;;;10366347;28;20029;-62
2024/03/02 12:31:05;;;;;;;14.18;8.18;;;;;;;;;;10368024;28;20028;-65
2024/03/02 12:36:09;;;;;;;22.17;9.20;;;;;;;;;;10372971;28;20239;-61
2024/03/02 12:41:10;;;;;;;16.75;9.18;;;;;;;;;;10373386;28;20109;-61
2024/03/02 12:46:11;;;;;;;14.77;8.10;;;;;;;;;;10372525;28;20025;-61
2024/03/02 12:51:11;;;;;;;22.92;8.15;;;;;;;;;;10372564;28;20420;-61
2024/03/02 12:56:12;;;;;;;14.73;8.18;;;;;;;;;;10365308;28;20045;-61
2024/03/02 13:01:15;;;;;;;16.67;8.48;;;;;;;;;;10367613;28;20026;-62
2024/03/02 13:06:17;;;;;;;16.17;8.55;;;;;;;;;;10363567;28;20042;-61
2024/03/02 13:11:17;;;;;;;14.68;8.38;;;;;;;;;;10356970;28;20120;-62
2024/03/02 13:16:19;;;;;;;15.20;8.50;;;;;;;;;;10365151;28;20036;-61
2024/03/02 13:21:20;;;;;;;16.33;9.13;;;;;;;;;;10369361;28;20038;-62
2024/03/02 13:26:20;;;;;;;17.37;7.90;;;;;;;;;;10361946;28;20042;-64
2024/03/02 13:31:21;;;;;;;14.50;8.13;;;;;;;;;;10371508;28;20439;-65
2024/03/02 13:36:21;;;;;;;13.90;7.80;;;;;;;;;;10371314;28;20069;-62
2024/03/02 13:41:22;;;;;;;13.30;7.85;;;;;;;;;;10370184;28;20029;-62
2024/03/02 13:46:22;;;;;;;11.87;6.97;;;;;;;;;;10368432;28;20038;-62
2024/03/02 13:51:23;;;;;;;13.38;7.40;;;;;;;;;;10369093;28;20950;-63
2024/03/02 13:56:23;;;;;;;12.85;7.95;;;;;;;;;;10370253;28;20173;-63
2024/03/02 14:01:24;;;;;;;14.40;7.40;;;;;;;;;;10369704;28;20099;-67
2024/03/02 14:06:26;;;;;;;13.25;7.72;;;;;;;;;;10369336;28;20056;-62
2024/03/02 14:11:27;;;;;;;11.48;7.10;;;;;;;;;;10369748;28;20033;-62
2024/03/02 14:16:27;;;;;;;12.67;7.10;;;;;;;;;;10369969;28;20052;-62
2024/03/02 14:21:28;;;;;;;11.35;7.00;;;;;;;;;;10369862;28;20444;-63
2024/03/02 14:26:28;;;;;;;13.40;7.72;;;;;;;;;;10365892;28;20053;-62
2024/03/02 14:31:29;;;;;;;13.73;7.63;;;;;;;;;;10366854;28;20024;-63
2024/03/02 14:36:30;;;;;;;13.05;7.80;;;;;;;;;;10357716;28;20389;-63
2024/03/02 14:41:30;;;;;;;12.98;6.90;;;;;;;;;;10361342;28;20018;-63
2024/03/02 14:46:31;;;;;;;11.50;6.90;;;;;;;;;;10350968;28;20029;-62
2024/03/02 14:51:31;;;;;;;10.50;7.07;;;;;;;;;;10358374;28;20125;-62
2024/03/02 14:56:32;;;;;;;10.20;6.50;;;;;;;;;;10358650;28;20029;-63
2024/03/02 15:01:33;;;;;;;12.23;7.43;;;;;;;;;;10358730;28;20116;-63
2024/03/02 15:06:34;;;;;;;11.63;6.65;;;;;;;;;;10355772;28;20492;-64
2024/03/02 15:11:34;;;;;;;10.10;6.75;;;;;;;;;;10358643;28;20026;-62
2024/03/02 15:16:35;;;;;;;10.85;6.82;;;;;;;;;;10359917;28;20141;-63
2024/03/02 15:21:35;;;;;;;9.13;6.32;;;;;;;;;;10359788;28;20022;-62
2024/03/02 15:26:36;;;;;;;8.88;5.57;;;;;;;;;;10353619;28;20393;-63
2024/03/02 15:31:36;;;;;;;9.48;5.57;;;;;;;;;;10354043;28;20026;-63
2024/03/02 15:36:36;;;;;;;12.67;6.53;;;;;;;;;;10357876;28;20165;-62
2024/03/02 15:41:40;;;;;;;8.33;5.93;;;;;;;;;;10359605;28;20541;-63
2024/03/02 15:46:40;;;;;;;11.95;6.30;;;;;;;;;;10358495;28;20994;-62
2024/03/02 15:51:43;;;;;;;11.50;6.70;;;;;;;;;;10354173;28;20022;-66
2024/03/02 15:56:44;;;;;;;9.32;6.15;;;;;;;;;;10358689;28;20029;-62
2024/03/02 16:01:45;;;;;;;9.70;6.25;;;;;;;;;;10359056;28;20393;-63
2024/03/02 16:06:45;;;;;;;12.93;5.90;;;;;;;;;;10360733;28;20649;-67
2024/03/02 16:11:45;;;;;;;11.32;6.03;;;;;;;;;;10367378;28;20147;-62
2024/03/02 16:16:46;;;;;;;9.80;5.82;;;;;;;;;;10366584;28;20053;-63
2024/03/02 16:21:46;;;;;;;10.13;5.90;;;;;;;;;;10367636;28;20480;-62
2024/03/02 16:26:47;;;;;;;9.27;5.43;;;;;;;;;;10367573;28;20478;-63
2024/03/02 16:31:47;;;;;;;10.83;5.87;;;;;;;;;;10367161;28;20845;-65
2024/03/02 16:36:47;;;;;;;9.27;5.50;;;;;;;;;;10365939;28;20523;-63
2024/03/02 16:41:48;;;;;;;11.70;6.30;;;;;;;;;;10367202;28;20455;-63
2024/03/02 16:46:49;;;;;;;9.32;5.45;;;;;;;;;;10365834;28;20030;-63
2024/03/02 16:51:49;;;;;;;10.57;5.80;;;;;;;;;;10361094;28;20034;-63
2024/03/02 16:56:50;;;;;;;7.60;5.28;;;;;;;;;;10361932;28;20091;-63
2024/03/02 17:01:50;;;;;;;9.57;6.07;;;;;;;;;;10365489;28;20026;-65
2024/03/02 17:06:50;;;;;;;8.47;5.10;;;;;;;;;;10365160;28;21187;-63
2024/03/02 17:11:51;;;;;;;10.20;5.20;;;;;;;;;;10369487;28;20467;-64
2024/03/02 17:16:51;;;;;;;8.20;5.70;;;;;;;;;;10365232;28;20470;-63
2024/03/02 17:21:52;;;;;;;9.63;5.65;;;;;;;;;;10370930;28;20530;-64
2024/03/02 17:26:53;;;;;;;6.77;4.63;;;;;;;;;;10370884;28;20030;-63
2024/03/02 17:31:55;;;;;;;10.60;5.50;;;;;;;;;;10370400;28;20858;-64
2024/03/02 17:36:56;;;;;;;8.43;5.30;;;;;;;;;;10369564;28;20510;-64
2024/03/02 17:41:56;;;;;;;8.88;5.32;;;;;;;;;;10369349;28;20030;-64
2024/03/02 17:46:56;;;;;;;6.30;4.82;;;;;;;;;;10369008;28;20038;-66
2024/03/02 17:51:57;;;;;;;9.02;5.05;;;;;;;;;;10370091;28;20158;-65
2024/03/02 17:56:57;;;;;;;9.65;4.80;;;;;;;;;;10366105;28;20382;-67
2024/03/02 18:01:58;;;;;;;10.57;5.23;;;;;;;;;;10369974;28;20466;-63
2024/03/02 18:06:58;;;;;;;7.95;4.88;;;;;;;;;;10364937;28;20478;-64
2024/03/02 18:11:59;;;;;;;8.85;4.95;;;;;;;;;;10369690;28;20030;-64
2024/03/02 18:16:59;;;;;;;6.95;4.60;;;;;;;;;;10370329;28;20025;-64
2024/03/02 18:21:59;;;;;;;9.10;4.80;;;;;;;;;;10369721;28;20029;-64
2024/03/02 18:27:00;;;;;;;8.57;4.95;;;;;;;;;;10369639;28;20030;-64
2024/03/02 18:32:03;;;;;;;7.95;5.22;;;;;;;;;;10369749;28;20018;-64
2024/03/02 18:37:04;;;;;;;6.55;4.22;;;;;;;;;;10369521;28;20481;-64
2024/03/02 18:42:04;;;;;;;7.97;4.82;;;;;;;;;;10369242;28;20026;-63
2024/03/02 18:47:05;;;;;;;7.53;5.00;;;;;;;;;;10365893;28;20030;-63
2024/03/02 18:52:05;;;;;;;9.75;4.70;;;;;;;;;;10367947;28;20350;-62
2024/03/02 18:57:06;;;;;;;6.50;4.50;;;;;;;;;;10368061;28;20088;-63
2024/03/02 19:02:06;;;;;;;9.38;4.80;;;;;;;;;;10368084;28;21046;-63
2024/03/02 19:07:07;;;;;;;6.77;4.73;;;;;;;;;;10365084;28;20065;-63
2024/03/02 19:12:07;;;;;;;8.77;4.60;;;;;;;;;;10360298;28;20443;-63
2024/03/02 19:17:07;;;;;;;7.50;4.20;;;;;;;;;;10361905;28;20443;-63
2024/03/02 19:22:08;;;;;;;7.23;4.47;;;;;;;;;;10365198;28;20026;-63
2024/03/02 19:27:08;;;;;;;6.88;4.40;;;;;;;;;;10366084;28;20982;-63
2024/03/02 19:32:09;;;;;;;8.43;4.63;;;;;;;;;;10360354;28;20394;-63
2024/03/02 19:37:09;;;;;;;7.47;4.30;;;;;;;;;;10366082;28;20588;-63
2024/03/02 19:42:09;;;;;;;6.57;4.00;;;;;;;;;;10363204;28;20797;-63
2024/03/02 19:47:19;;;;;;;4.90;4.00;;;;;;;;;;10363736;28;20475;-63
2024/03/02 19:52:19;;;;;;;10.13;4.80;;;;;;;;;;10361300;28;20032;-63
2024/03/02 19:57:20;;;;;;;6.13;4.33;;;;;;;;;;10364549;28;20026;-63
2024/03/02 20:02:22;;;;;;;7.18;4.10;;;;;;;;;;10364246;28;20459;-64
2024/03/02 20:07:22;;;;;;;6.80;4.65;;;;;;;;;;10365939;28;20110;-64
2024/03/02 20:12:22;;;;;;;4.97;4.25;;;;;;;;;;10366294;28;20030;-63
2024/03/02 20:17:23;;;;;;;6.28;4.07;;;;;;;;;;10364517;28;20022;-64
2024/03/02 20:22:23;;;;;;;6.28;4.60;;;;;;;;;;10363167;28;20030;-64
2024/03/02 20:27:24;;;;;;;7.57;4.20;;;;;;;;;;10362934;28;20440;-63
2024/03/02 20:32:25;;;;;;;8.57;4.37;;;;;;;;;;10360690;28;20076;-63
2024/03/02 20:37:26;;;;;;;8.02;4.15;;;;;;;;;;10364060;28;20455;-63
2024/03/02 20:42:26;;;;;;;5.95;4.38;;;;;;;;;;10358559;28;20105;-66
2024/03/02 20:47:27;;;;;;;11.80;4.47;;;;;;;;;;10362493;28;20040;-62
2024/03/02 20:52:27;;;;;;;12.75;4.43;;;;;;;;;;10364913;28;20531;-62
2024/03/02 20:57:28;;;;;;;8.10;4.03;;;;;;;;;;10369529;28;20026;-61
2024/03/02 21:02:29;;;;;;;10.32;4.03;;;;;;;;;;10371127;28;20033;-62
2024/03/02 21:07:29;;;;;;;7.68;4.32;;;;;;;;;;10371659;28;20477;-60
2024/03/02 21:12:30;;;;;;;17.42;4.18;;;;;;;;;;10370536;28;20022;-63
2024/03/02 21:17:30;;;;;;;7.67;3.80;;;;;;;;;;10369158;28;20083;-65
2024/03/02 21:22:31;;;;;;;7.38;4.38;;;;;;;;;;10372178;28;20444;-62
2024/03/02 21:27:31;;;;;;;17.13;4.33;;;;;;;;;;10369885;28;20474;-64
2024/03/02 21:32:32;;;;;;;7.00;4.40;;;;;;;;;;10370559;28;20451;-63
2024/03/02 21:37:32;;;;;;;10.82;4.32;;;;;;;;;;10370265;28;20761;-62
2024/03/02 21:42:33;;;;;;;11.43;3.85;;;;;;;;;;10370279;28;20650;-63
2024/03/02 21:47:33;;;;;;;6.60;3.53;;;;;;;;;;10371855;28;20045;-63
2024/03/02 21:52:33;;;;;;;6.10;3.90;;;;;;;;;;10367589;28;21001;-65
2024/03/02 21:57:37;;;;;;;5.57;3.60;;;;;;;;;;10370434;28;20452;-60
2024/03/02 22:02:37;;;;;;;7.32;4.28;;;;;;;;;;10369483;28;20911;-61
2024/03/02 22:07:38;;;;;;;6.60;3.57;;;;;;;;;;10369603;28;20154;-65
2024/03/02 22:12:38;;;;;;;6.22;4.20;;;;;;;;;;10369385;28;20443;-63
2024/03/02 22:17:38;;;;;;;6.45;3.60;;;;;;;;;;10368680;28;20051;-63
2024/03/02 22:22:40;;;;;;;6.93;3.73;;;;;;;;;;10368295;28;20022;-63
2024/03/02 22:27:40;;;;;;;6.80;3.88;;;;;;;;;;10367370;28;20467;-64
2024/03/02 22:32:41;;;;;;;6.72;3.92;;;;;;;;;;10367548;28;20034;-62
2024/03/02 22:37:41;;;;;;;10.90;4.40;;;;;;;;;;10367671;28;20033;-61
2024/03/02 22:42:42;;;;;;;7.13;4.03;;;;;;;;;;10368024;28;20026;-62
2024/03/02 22:47:42;;;;;;;8.38;4.00;;;;;;;;;;10368563;28;20038;-60
2024/03/02 22:52:43;;;;;;;8.05;4.63;;;;;;;;;;10364390;28;20196;-64
2024/03/02 22:57:43;;;;;;;6.25;3.47;;;;;;;;;;10368686;28;20033;-63
2024/03/02 23:02:44;;;;;;;12.43;4.20;;;;;;;;;;10367618;28;20025;-60
2024/03/02 23:07:44;;;;;;;14.27;4.33;;;;;;;;;;10368349;28;20466;-59
2024/03/02 23:12:45;;;;;;;17.60;4.03;;;;;;;;;;10363892;28;20451;-58
2024/03/02 23:17:45;;;;;;;13.18;3.83;;;;;;;;;;10366824;28;21011;-58
2024/03/02 23:22:46;;;;;;;10.85;3.75;;;;;;;;;;10368123;28;20032;-57
2024/03/02 23:27:46;;;;;;;12.80;3.70;;;;;;;;;;10368368;28;20037;-57
2024/03/02 23:32:46;;;;;;;10.40;3.53;;;;;;;;;;10367855;28;20049;-64
2024/03/02 23:37:48;;;;;;;17.48;3.47;;;;;;;;;;10368307;28;20083;-64
2024/03/02 23:42:48;;;;;;;5.88;3.60;;;;;;;;;;10367821;28;20061;-63
2024/03/02 23:47:48;;;;;;;7.50;3.58;;;;;;;;;;10367064;28;20037;-63
2024/03/02 23:52:49;;;;;;;6.60;3.43;;;;;;;;;;10368130;28;20113;-63
2024/03/02 23:57:49;;;;;;;8.40;2.93;;;;;;;;;;10366909;28;20538;-66
